Time;durP1;ratioP1;P1;durP2;ratioP2;P2;SDS_P1;SDS_P2;PMS_P1;PMS_P2;Temp;Humidity;BMP_temperature;BMP_pressure;BME280_temperature;BME280_humidity;BME280_pressure;Samples;Min_cycle;Max_cycle;Signal;HPM_P1;HPM_P2
2022/04/23 00:01:00;;;;;;;7.00;4.60;;;;;;;19.56;55.44;98748.94;5091288;28;20174;-62
2022/04/23 00:03:25;;;;;;;5.60;4.50;;;;;;;19.56;55.51;98757.50;5091247;28;20219;-62
2022/04/23 00:05:51;;;;;;;6.07;4.50;;;;;;;19.57;55.56;98756.25;5089500;28;20171;-62
2022/04/23 00:08:16;;;;;;;9.33;3.97;;;;;;;19.56;55.76;98754.66;5088425;28;20549;-62
2022/04/23 00:10:41;;;;;;;5.07;4.37;;;;;;;19.57;55.37;98752.63;5086524;28;20173;-62
2022/04/23 00:13:07;;;;;;;5.77;3.90;;;;;;;19.58;55.43;98755.06;5089273;28;20170;-62
2022/04/23 00:15:38;;;;;;;5.43;4.10;;;;;;;19.58;55.34;98748.50;5089254;28;20197;-62
2022/04/23 00:18:07;;;;;;;6.47;4.20;;;;;;;19.57;55.29;98753.41;5089408;28;20198;-62
2022/04/23 00:20:33;;;;;;;5.03;4.20;;;;;;;19.57;55.42;98741.97;5090949;28;20477;-62
2022/04/23 00:22:59;;;;;;;6.63;4.23;;;;;;;19.56;55.16;98746.06;5091432;28;20416;-62
2022/04/23 00:25:25;;;;;;;8.10;5.07;;;;;;;19.56;55.41;98746.06;5090783;28;20411;-62
2022/04/23 00:27:51;;;;;;;5.50;4.37;;;;;;;19.56;55.80;98753.84;5091256;28;20413;-62
2022/04/23 00:30:16;;;;;;;6.20;4.43;;;;;;;19.56;55.47;98743.19;5091220;28;20416;-62
2022/04/23 00:32:42;;;;;;;5.53;4.30;;;;;;;19.58;55.66;98742.78;5091181;28;20178;-62
2022/04/23 00:35:07;;;;;;;6.90;4.30;;;;;;;19.57;55.60;98746.88;5093441;28;20185;-62
2022/04/23 00:37:33;;;;;;;5.50;3.93;;;;;;;19.58;55.57;98748.50;5094810;28;20185;-62
2022/04/23 00:39:59;;;;;;;5.53;4.23;;;;;;;19.58;55.65;98755.06;5094472;28;20182;-62
2022/04/23 00:42:24;;;;;;;6.30;4.30;;;;;;;19.58;55.46;98748.50;5094718;28;20590;-62
2022/04/23 00:44:50;;;;;;;6.10;4.03;;;;;;;19.55;55.45;98755.91;5094523;28;20170;-62
2022/04/23 00:47:15;;;;;;;5.40;4.30;;;;;;;19.56;55.45;98748.94;5094447;28;20592;-62
2022/04/23 00:49:41;;;;;;;5.20;4.20;;;;;;;19.57;55.54;98744.03;5094704;28;20197;-62
2022/04/23 00:52:07;;;;;;;5.50;3.90;;;;;;;19.58;55.75;98751.38;5094537;28;20676;-62
2022/04/23 00:54:33;;;;;;;4.77;3.80;;;;;;;19.57;55.51;98753.41;5059411;28;20649;-62
2022/04/23 00:56:58;;;;;;;7.93;3.63;;;;;;;19.56;55.46;98751.78;5074155;28;20298;-62
2022/04/23 00:59:23;;;;;;;6.10;3.67;;;;;;;19.55;55.59;98749.34;5090414;28;20554;-62
2022/04/23 01:01:53;;;;;;;5.53;3.93;;;;;;;19.56;55.62;98748.94;5057963;28;20673;-62
2022/04/23 01:04:18;;;;;;;4.40;3.70;;;;;;;19.55;55.85;98744.44;5073911;28;20646;-62
2022/04/23 01:06:44;;;;;;;4.60;3.47;;;;;;;19.55;55.58;98744.44;5085360;28;20448;-62
2022/04/23 01:09:09;;;;;;;5.60;3.70;;;;;;;19.57;55.50;98744.81;5094190;28;20168;-62
2022/04/23 01:11:35;;;;;;;5.20;3.80;;;;;;;19.57;55.76;98738.28;5094181;28;20167;-62
2022/04/23 01:14:01;;;;;;;5.10;4.10;;;;;;;19.57;55.56;98735.44;5093984;28;20182;-62
2022/04/23 01:16:26;;;;;;;4.90;3.77;;;;;;;19.54;55.54;98737.09;5093472;28;20461;-62
2022/04/23 01:18:52;;;;;;;4.77;3.73;;;;;;;19.57;55.70;98738.28;5093043;28;20171;-62
2022/04/23 01:21:17;;;;;;;3.97;3.40;;;;;;;19.57;55.59;98741.97;5092828;28;20589;-62
2022/04/23 01:23:49;;;;;;;5.13;4.00;;;;;;;19.56;55.45;98740.34;5093688;28;20178;-62
2022/04/23 01:26:26;;;;;;;5.43;4.87;;;;;;;19.56;55.81;98740.34;5093817;28;20170;-62
2022/04/23 01:28:52;;;;;;;4.40;3.97;;;;;;;19.55;55.66;98730.13;5089997;28;20416;-62
2022/04/23 01:31:17;;;;;;;4.33;3.70;;;;;;;19.56;55.54;98733.81;5073454;28;20475;-62
2022/04/23 01:33:43;;;;;;;5.10;3.80;;;;;;;19.56;55.87;98737.47;5075941;28;20179;-62
2022/04/23 01:36:08;;;;;;;4.43;3.80;;;;;;;19.56;55.67;98734.63;5073309;28;20199;-62
2022/04/23 01:38:33;;;;;;;4.80;3.70;;;;;;;19.55;55.61;98741.59;5073361;28;20172;-61
2022/04/23 01:40:59;;;;;;;4.90;3.90;;;;;;;19.55;55.70;98741.59;5073241;28;20530;-61
2022/04/23 01:43:24;;;;;;;4.63;3.90;;;;;;;19.57;55.47;98741.97;5073327;28;20170;-61
2022/04/23 01:45:50;;;;;;;5.07;3.83;;;;;;;19.57;55.66;98744.03;5072524;28;20180;-61
2022/04/23 01:48:15;;;;;;;6.43;4.30;;;;;;;19.57;55.66;98747.69;5092272;28;20174;-62
2022/04/23 01:50:41;;;;;;;7.67;4.27;;;;;;;19.56;55.70;98754.66;5093340;28;20179;-62
2022/04/23 01:53:06;;;;;;;5.10;3.97;;;;;;;19.56;55.94;98754.66;5093061;28;20223;-62
2022/04/23 01:55:32;;;;;;;5.27;3.70;;;;;;;19.54;55.64;98760.00;5093232;28;20170;-62
2022/04/23 01:57:57;;;;;;;5.30;3.80;;;;;;;19.57;55.65;98756.25;5075122;28;20183;-62
2022/04/23 02:00:23;;;;;;;5.30;3.73;;;;;;;19.55;55.59;98761.63;5084154;28;20224;-62
2022/04/23 02:02:48;;;;;;;3.90;3.20;;;;;;;19.57;55.53;98764.84;5073021;28;20175;-62
2022/04/23 02:05:14;;;;;;;4.40;3.40;;;;;;;19.58;55.82;98765.69;5072768;28;20175;-62
2022/04/23 02:07:40;;;;;;;4.50;3.53;;;;;;;19.55;55.82;98758.75;5072445;28;20223;-62
2022/04/23 02:10:06;;;;;;;4.43;3.87;;;;;;;19.58;55.58;98760.78;5072621;28;20258;-62
2022/04/23 02:12:33;;;;;;;5.43;4.00;;;;;;;19.55;55.62;98758.75;5072778;28;20413;-62
2022/04/23 02:14:59;;;;;;;5.30;3.97;;;;;;;19.55;55.63;98761.63;5072605;28;20455;-62
2022/04/23 02:17:43;;;;;;;3.93;3.20;;;;;;;19.55;55.65;98767.34;5083317;28;20448;-62
2022/04/23 02:20:12;;;;;;;4.17;3.33;;;;;;;19.55;55.48;98764.47;5092819;28;20186;-62
2022/04/23 02:22:37;;;;;;;5.13;3.93;;;;;;;19.53;56.11;98758.38;5092901;28;20419;-62
2022/04/23 02:25:05;;;;;;;4.43;3.70;;;;;;;19.52;55.58;98751.00;5092706;28;20416;-62
2022/04/23 02:27:50;;;;;;;5.63;3.30;;;;;;;19.54;55.82;98764.91;5092744;28;20210;-62
2022/04/23 02:30:20;;;;;;;3.90;3.33;;;;;;;19.55;55.56;98753.03;5092025;28;20513;-62
2022/04/23 02:32:45;;;;;;;5.40;3.93;;;;;;;19.53;55.62;98749.78;5092637;28;20440;-62
2022/04/23 02:35:12;;;;;;;5.80;3.90;;;;;;;19.54;55.78;98753.44;5092485;28;20416;-62
2022/04/23 02:37:38;;;;;;;5.50;4.00;;;;;;;19.52;55.90;98761.66;5092424;28;20296;-62
2022/04/23 02:40:04;;;;;;;5.97;3.57;;;;;;;19.53;55.75;98757.56;5092550;28;20869;-62
2022/04/23 02:42:30;;;;;;;4.57;3.80;;;;;;;19.54;55.68;98765.72;5074544;28;20204;-62
2022/04/23 02:45:00;;;;;;;4.47;3.63;;;;;;;19.54;55.92;98762.03;5092352;28;20782;-62
2022/04/23 02:47:29;;;;;;;4.57;3.40;;;;;;;19.54;55.72;98762.88;5092491;28;20222;-62
2022/04/23 02:49:55;;;;;;;4.70;3.90;;;;;;;19.53;55.69;98764.09;5092444;28;20431;-62
2022/04/23 02:52:20;;;;;;;4.77;3.50;;;;;;;19.52;55.64;98765.31;5090860;28;20417;-62
2022/04/23 02:54:46;;;;;;;4.83;3.83;;;;;;;19.52;55.78;98762.47;5090862;28;20174;-62
2022/04/23 02:57:11;;;;;;;4.33;3.73;;;;;;;19.52;55.68;98759.59;5090336;28;20186;-61
2022/04/23 02:59:39;;;;;;;4.37;3.93;;;;;;;19.52;55.83;98762.47;5089921;28;20673;-61
2022/04/23 03:02:07;;;;;;;5.30;3.90;;;;;;;19.52;55.66;98765.31;5064049;28;20529;-61
2022/04/23 03:04:33;;;;;;;3.93;3.53;;;;;;;19.53;55.72;98766.16;5070377;28;20436;-61
2022/04/23 03:06:58;;;;;;;4.43;3.60;;;;;;;19.52;55.79;98764.53;5073805;28;20476;-61
2022/04/23 03:09:23;;;;;;;4.20;3.50;;;;;;;19.50;56.02;98759.22;5091920;28;20569;-62
2022/04/23 03:11:49;;;;;;;4.30;3.43;;;;;;;19.50;56.06;98758.38;5092006;28;20213;-62
2022/04/23 03:14:15;;;;;;;4.87;4.37;;;;;;;19.54;55.58;98762.88;5091306;28;20174;-61
2022/04/23 03:16:41;;;;;;;4.17;3.30;;;;;;;19.52;55.76;98753.06;5092014;28;20293;-61
2022/04/23 03:19:06;;;;;;;4.50;3.33;;;;;;;19.52;55.93;98753.88;5091891;28;20973;-61
2022/04/23 03:21:32;;;;;;;5.93;3.63;;;;;;;19.52;55.68;98748.16;5092039;28;20175;-61
2022/04/23 03:23:57;;;;;;;4.60;3.23;;;;;;;19.53;55.99;98751.84;5091760;28;20206;-61
2022/04/23 03:26:22;;;;;;;5.60;3.70;;;;;;;19.50;56.22;98759.22;5091745;28;20170;-61
2022/04/23 03:28:48;;;;;;;4.93;3.80;;;;;;;19.51;55.88;98749.38;5091464;28;20186;-61
2022/04/23 03:31:13;;;;;;;4.23;3.33;;;;;;;19.50;55.76;98759.22;5084746;28;20179;-61
2022/04/23 03:33:39;;;;;;;4.90;3.27;;;;;;;19.50;55.65;98756.34;5072659;28;20190;-61
2022/04/23 03:36:05;;;;;;;4.97;3.10;;;;;;;19.51;55.76;98757.19;5072713;28;20210;-61
2022/04/23 03:38:31;;;;;;;4.60;3.40;;;;;;;19.49;56.02;98751.88;5087998;28;20190;-61
2022/04/23 03:40:56;;;;;;;4.70;3.60;;;;;;;19.48;56.55;98744.53;5091533;28;20193;-62
2022/04/23 03:43:22;;;;;;;3.87;3.13;;;;;;;19.51;55.83;98749.38;5089957;28;20754;-62
2022/04/23 03:45:47;;;;;;;5.07;3.80;;;;;;;19.50;55.69;98741.22;5089926;28;20554;-61
2022/04/23 03:48:14;;;;;;;3.87;3.30;;;;;;;19.50;55.72;98742.03;5089992;28;20734;-61
2022/04/23 03:50:40;;;;;;;4.03;3.40;;;;;;;19.49;55.86;98740.44;5090250;28;20537;-61
2022/04/23 03:53:05;;;;;;;4.30;3.30;;;;;;;19.48;55.88;98733.09;5071938;28;20467;-62
2022/04/23 03:55:31;;;;;;;4.87;3.37;;;;;;;19.49;55.88;98734.69;5089918;28;20681;-61
2022/04/23 03:57:56;;;;;;;4.33;3.37;;;;;;;19.50;55.68;98742.03;5090993;28;20653;-61
2022/04/23 04:00:22;;;;;;;4.43;3.57;;;;;;;19.50;56.01;98736.31;5091704;28;20179;-62
2022/04/23 04:02:52;;;;;;;3.70;3.10;;;;;;;19.49;55.74;98736.75;5091480;28;20165;-61
2022/04/23 04:05:18;;;;;;;4.50;3.73;;;;;;;19.48;55.80;98735.94;5057359;28;20240;-62
2022/04/23 04:07:44;;;;;;;3.93;3.17;;;;;;;19.48;56.07;98730.22;5091467;28;20484;-62
2022/04/23 04:10:11;;;;;;;4.40;3.03;;;;;;;19.49;55.71;98731.00;5081685;28;20183;-62
2022/04/23 04:12:37;;;;;;;5.30;3.73;;;;;;;19.49;55.79;98725.28;5074824;28;20409;-61
2022/04/23 04:15:06;;;;;;;4.40;3.47;;;;;;;19.49;55.89;98734.69;5090063;28;20454;-61
2022/04/23 04:17:32;;;;;;;3.10;2.60;;;;;;;19.49;55.96;98725.28;5095170;28;20448;-61
2022/04/23 04:19:58;;;;;;;4.00;3.10;;;;;;;19.49;55.86;98731.00;5095219;28;20423;-61
2022/04/23 04:22:24;;;;;;;3.80;3.17;;;;;;;19.46;55.94;98724.09;5095201;28;20668;-61
2022/04/23 04:24:49;;;;;;;6.40;3.03;;;;;;;19.47;55.89;98730.63;5095053;28;20420;-61
2022/04/23 04:27:15;;;;;;;5.97;3.40;;;;;;;19.49;55.64;98726.13;5093526;28;20167;-61
2022/04/23 04:29:40;;;;;;;3.80;3.00;;;;;;;19.46;55.85;98718.38;5094428;28;20173;-61
2022/04/23 04:32:07;;;;;;;4.30;3.30;;;;;;;19.47;55.76;98719.97;5095045;28;20171;-61
2022/04/23 04:34:33;;;;;;;4.33;3.37;;;;;;;19.48;55.90;98710.19;5094747;28;20186;-61
2022/04/23 04:37:03;;;;;;;3.60;3.03;;;;;;;19.48;55.86;98717.94;5094900;28;20467;-61
2022/04/23 04:39:28;;;;;;;4.53;3.50;;;;;;;19.50;55.56;98718.31;5094587;28;20669;-61
2022/04/23 04:41:54;;;;;;;4.20;3.07;;;;;;;19.49;56.12;98716.69;5094725;28;20424;-62
2022/04/23 04:44:19;;;;;;;4.03;3.20;;;;;;;19.47;55.79;98716.34;5094940;28;20560;-62
2022/04/23 04:46:45;;;;;;;4.13;3.30;;;;;;;19.49;55.92;98722.44;5094852;28;20190;-62
2022/04/23 04:49:10;;;;;;;5.47;3.80;;;;;;;19.49;55.83;98722.44;5094388;28;20174;-61
2022/04/23 04:51:36;;;;;;;4.80;3.77;;;;;;;19.48;55.92;98724.50;5094604;28;20179;-61
2022/04/23 04:54:04;;;;;;;5.17;3.20;;;;;;;19.48;56.32;98726.53;5094620;28;20543;-61
2022/04/23 04:56:30;;;;;;;3.80;3.10;;;;;;;19.50;56.32;98733.47;5094690;28;20433;-61
2022/04/23 04:58:55;;;;;;;3.90;3.03;;;;;;;19.48;55.69;98733.09;5094397;28;20865;-61
2022/04/23 05:01:21;;;;;;;3.97;3.23;;;;;;;19.48;55.95;98735.94;5077976;28;20183;-61
2022/04/23 05:03:46;;;;;;;4.30;3.37;;;;;;;19.48;55.79;98735.94;5087674;28;20167;-61
2022/04/23 05:06:12;;;;;;;4.33;2.90;;;;;;;19.49;55.96;98749.00;5074338;28;20190;-61
2022/04/23 05:08:38;;;;;;;4.77;3.40;;;;;;;19.49;56.32;98742.47;5076449;28;20704;-61
2022/04/23 05:11:03;;;;;;;4.23;3.30;;;;;;;19.48;55.99;98744.53;5076163;28;20235;-61
2022/04/23 05:13:29;;;;;;;3.87;2.50;;;;;;;19.48;56.15;98744.53;5094470;28;20265;-61
2022/04/23 05:15:54;;;;;;;3.93;3.30;;;;;;;19.48;55.80;98755.16;5094132;28;20238;-62
2022/04/23 05:18:20;;;;;;;4.40;3.50;;;;;;;19.48;55.76;98744.53;5094468;28;20182;-61
2022/04/23 05:20:45;;;;;;;3.77;3.03;;;;;;;19.49;55.74;98745.31;5092982;28;20178;-61
2022/04/23 05:23:11;;;;;;;4.10;3.33;;;;;;;19.49;56.18;98751.88;5094114;28;20178;-61
2022/04/23 05:25:36;;;;;;;4.40;3.70;;;;;;;19.48;55.82;98755.97;5093398;28;20633;-61
2022/04/23 05:28:02;;;;;;;4.00;3.30;;;;;;;19.47;55.88;98748.59;5088564;28;20658;-61
2022/04/23 05:30:27;;;;;;;4.70;3.23;;;;;;;19.50;55.78;98755.53;5074911;28;20179;-61
2022/04/23 05:32:52;;;;;;;4.30;3.50;;;;;;;19.48;55.98;98755.97;5087619;28;20182;-61
2022/04/23 05:35:18;;;;;;;4.43;3.40;;;;;;;19.50;55.80;98759.22;5093679;28;20232;-62
2022/04/23 05:37:43;;;;;;;3.70;3.20;;;;;;;19.50;56.26;98764.94;5093746;28;20213;-62
2022/04/23 05:40:09;;;;;;;4.13;3.20;;;;;;;19.50;55.65;98773.53;5093311;28;20167;-61
2022/04/23 05:42:34;;;;;;;4.10;3.33;;;;;;;19.51;55.65;98780.88;5093689;28;20186;-61
2022/04/23 05:45:00;;;;;;;4.40;3.47;;;;;;;19.51;55.65;98778.00;5093476;28;20547;-61
2022/04/23 05:47:25;;;;;;;4.10;2.97;;;;;;;19.50;55.81;98784.16;5093525;28;20186;-61
2022/04/23 05:49:51;;;;;;;4.17;3.17;;;;;;;19.48;55.79;98778.06;5093358;28;20174;-61
2022/04/23 05:52:16;;;;;;;5.37;3.07;;;;;;;19.48;55.78;98784.59;5093521;28;20170;-61
2022/04/23 05:54:41;;;;;;;3.50;2.70;;;;;;;19.48;55.98;98778.88;5093179;28;20177;-61
2022/04/23 05:57:07;;;;;;;4.43;3.17;;;;;;;19.49;56.02;98783.34;5093538;28;20195;-61
2022/04/23 05:59:32;;;;;;;3.80;3.13;;;;;;;19.49;55.88;98779.69;5089075;28;20610;-61
2022/04/23 06:01:58;;;;;;;4.00;3.23;;;;;;;19.50;55.87;98784.16;5080991;28;20186;-61
2022/04/23 06:04:25;;;;;;;3.50;2.90;;;;;;;19.49;55.83;98786.22;5093147;28;20174;-61
2022/04/23 06:06:51;;;;;;;3.47;2.90;;;;;;;19.51;55.85;98785.81;5080089;28;20258;-61
2022/04/23 06:09:16;;;;;;;3.80;3.13;;;;;;;19.49;55.75;98779.69;5072598;28;20744;-61
2022/04/23 06:11:42;;;;;;;3.50;2.77;;;;;;;19.50;55.73;98781.28;5086819;28;20174;-62
2022/04/23 06:14:07;;;;;;;3.77;3.03;;;;;;;19.50;55.96;98781.28;5093163;28;20223;-62
2022/04/23 06:16:34;;;;;;;3.97;3.10;;;;;;;19.49;55.62;98774.78;5092804;28;20196;-61
2022/04/23 06:18:59;;;;;;;3.67;3.03;;;;;;;19.50;55.64;98778.44;5092997;28;20178;-61
2022/04/23 06:21:25;;;;;;;4.40;3.20;;;;;;;19.49;55.82;98769.06;5092955;28;20467;-61
2022/04/23 06:23:50;;;;;;;3.93;2.97;;;;;;;19.49;55.92;98771.91;5092743;28;20227;-62
2022/04/23 06:26:16;;;;;;;3.67;2.80;;;;;;;19.50;55.83;98776.41;5092784;28;20170;-61
2022/04/23 06:28:41;;;;;;;3.50;2.73;;;;;;;19.49;55.58;98774.78;5092752;28;20637;-62
2022/04/23 06:31:07;;;;;;;3.70;2.77;;;;;;;19.51;55.74;98786.59;5092967;28;20182;-62
2022/04/23 06:33:32;;;;;;;4.40;3.40;;;;;;;19.50;55.56;98787.00;5093082;28;20182;-61
2022/04/23 06:35:58;;;;;;;4.00;3.20;;;;;;;19.50;55.67;98793.56;5092467;28;20555;-61
2022/04/23 06:38:24;;;;;;;4.00;3.27;;;;;;;19.50;55.83;98793.56;5092344;28;20257;-61
2022/04/23 06:40:49;;;;;;;3.33;2.57;;;;;;;19.52;56.05;98791.09;5092613;28;20434;-62
2022/04/23 06:43:15;;;;;;;4.80;3.20;;;;;;;19.52;55.83;98790.28;5092953;28;20169;-62
2022/04/23 06:45:40;;;;;;;3.80;3.03;;;;;;;19.51;55.90;98783.75;5092365;28;20613;-62
2022/04/23 06:48:06;;;;;;;3.50;3.00;;;;;;;19.51;55.53;98789.47;5092590;28;20174;-61
2022/04/23 06:50:32;;;;;;;3.90;3.10;;;;;;;19.50;55.55;98784.16;5092520;28;20162;-62
2022/04/23 06:53:01;;;;;;;4.03;2.90;;;;;;;19.52;56.05;98796.00;5086497;28;20417;-62
2022/04/23 06:55:27;;;;;;;3.43;2.70;;;;;;;19.50;55.65;98790.72;5065832;28;20482;-61
2022/04/23 06:57:52;;;;;;;4.13;3.20;;;;;;;19.51;55.73;98788.66;5079716;28;20797;-61
2022/04/23 07:00:19;;;;;;;4.40;3.10;;;;;;;19.50;55.95;98787.84;5092057;28;20417;-61
2022/04/23 07:02:44;;;;;;;4.33;3.30;;;;;;;19.50;55.78;98787.84;5092536;28;20209;-61
2022/04/23 07:05:10;;;;;;;3.60;2.83;;;;;;;19.50;55.62;98789.88;5092208;28;20911;-61
2022/04/23 07:07:35;;;;;;;4.80;3.37;;;;;;;19.51;55.61;98789.47;5092271;28;20305;-61
2022/04/23 07:10:01;;;;;;;3.57;2.70;;;;;;;19.50;55.77;98793.56;5091990;28;20174;-62
2022/04/23 07:12:27;;;;;;;3.97;3.00;;;;;;;19.50;55.69;98795.59;5074305;28;20182;-62
2022/04/23 07:14:52;;;;;;;4.10;2.67;;;;;;;19.52;55.83;98804.59;5091537;28;20656;-62
2022/04/23 07:17:25;;;;;;;3.33;2.73;;;;;;;19.51;55.91;98802.97;5091714;28;20780;-62
2022/04/23 07:19:53;;;;;;;4.67;3.37;;;;;;;19.51;55.73;98805.84;5074136;28;20189;-62
2022/04/23 07:22:19;;;;;;;3.60;2.70;;;;;;;19.51;55.41;98809.50;5091945;28;20431;-62
2022/04/23 07:24:45;;;;;;;3.90;2.93;;;;;;;19.50;55.66;98805.00;5092097;28;20409;-62
2022/04/23 07:27:11;;;;;;;4.17;3.40;;;;;;;19.51;55.57;98808.72;5091938;28;20273;-62
2022/04/23 07:29:36;;;;;;;3.50;3.03;;;;;;;19.51;55.44;98805.84;5091664;28;20186;-61
2022/04/23 07:32:02;;;;;;;3.23;2.80;;;;;;;19.51;55.77;98806.63;5091729;28;20182;-61
2022/04/23 07:37:31;;;;;;;3.70;3.00;;;;;;;19.51;55.99;98809.50;5073899;28;20553;-62
2022/04/23 07:40:05;;;;;;;4.10;2.90;;;;;;;19.52;55.67;98807.47;5077481;28;20890;-62
2022/04/23 07:42:31;;;;;;;4.30;3.30;;;;;;;19.52;55.84;98802.53;5091759;28;20489;-62
2022/04/23 07:44:57;;;;;;;4.70;3.43;;;;;;;19.51;55.63;98800.91;5093668;28;20432;-62
2022/04/23 07:47:23;;;;;;;3.47;2.70;;;;;;;19.51;55.58;98798.06;5095242;28;20428;-61
2022/04/23 07:49:48;;;;;;;4.13;3.30;;;;;;;19.52;55.65;98796.00;5095072;28;20235;-61
2022/04/23 07:52:14;;;;;;;3.60;2.80;;;;;;;19.53;55.85;98803.34;5095957;28;20525;-62
2022/04/23 07:54:39;;;;;;;3.50;2.67;;;;;;;19.52;55.94;98807.47;5096042;28;20174;-61
2022/04/23 07:57:07;;;;;;;5.20;2.80;;;;;;;19.53;55.60;98803.34;5094407;28;20286;-62
2022/04/23 07:59:32;;;;;;;3.53;2.70;;;;;;;19.56;55.96;98808.25;5095281;28;20198;-61
2022/04/23 08:01:58;;;;;;;2.90;2.60;;;;;;;19.54;55.79;98810.69;5095725;28;20462;-61
2022/04/23 08:04:23;;;;;;;3.97;2.90;;;;;;;19.54;55.62;98811.53;5095431;28;20648;-61
2022/04/23 08:06:49;;;;;;;3.37;2.70;;;;;;;19.55;55.80;98813.16;5095298;28;20272;-61
2022/04/23 08:09:14;;;;;;;3.47;3.10;;;;;;;19.54;55.45;98813.56;5095373;28;20569;-61
2022/04/23 08:11:40;;;;;;;3.30;2.90;;;;;;;19.55;55.60;98812.31;5089938;28;20176;-61
2022/04/23 08:14:06;;;;;;;3.00;2.30;;;;;;;19.56;55.61;98819.69;5055180;28;20179;-61
2022/04/23 08:16:31;;;;;;;3.70;3.27;;;;;;;19.56;55.49;98816.84;5058569;28;20555;-61
2022/04/23 08:18:57;;;;;;;4.07;3.10;;;;;;;19.56;55.45;98823.34;5074983;28;20417;-61
2022/04/23 08:21:22;;;;;;;3.60;3.00;;;;;;;19.55;55.66;98823.78;5074966;28;20612;-61
2022/04/23 08:23:48;;;;;;;3.50;2.90;;;;;;;19.55;56.05;98820.91;5074677;28;20191;-61
2022/04/23 08:26:13;;;;;;;3.77;3.17;;;;;;;19.56;55.66;98813.97;5074834;28;20225;-61
2022/04/23 08:31:23;;;;;;;3.53;2.57;;;;;;;19.55;55.48;98818.88;5054804;28;20267;-61
2022/04/23 08:34:00;;;;;;;3.30;2.53;;;;;;;19.56;55.44;98831.16;5053274;28;20825;-62
2022/04/23 08:36:31;;;;;;;3.60;2.50;;;;;;;19.55;55.56;98824.59;5053917;28;20203;-62
2022/04/23 08:38:58;;;;;;;3.53;2.63;;;;;;;19.55;55.56;98813.16;5054620;28;20406;-61
2022/04/23 08:41:30;;;;;;;3.40;2.73;;;;;;;19.56;55.48;98826.22;5054559;28;20414;-61
2022/04/23 08:44:03;;;;;;;3.90;2.80;;;;;;;19.55;55.51;98823.78;5054792;28;20402;-61
2022/04/23 08:46:29;;;;;;;3.63;2.80;;;;;;;19.54;55.51;98820.13;5054723;28;20434;-61
2022/04/23 08:49:00;;;;;;;3.17;2.50;;;;;;;19.54;55.54;98820.13;5065338;28;20434;-61
2022/04/23 08:51:25;;;;;;;3.10;2.70;;;;;;;19.54;55.42;98822.97;5054270;28;20187;-61
2022/04/23 08:53:51;;;;;;;3.10;2.50;;;;;;;19.53;55.61;98815.63;5055977;28;20421;-61
2022/04/23 08:56:16;;;;;;;3.50;2.97;;;;;;;19.54;55.49;98819.28;5036213;28;20541;-61
2022/04/23 08:58:42;;;;;;;3.40;2.77;;;;;;;19.54;55.72;98822.16;5048168;28;20187;-61
2022/04/23 09:01:08;;;;;;;3.60;3.10;;;;;;;19.54;54.95;98825.84;5056470;28;20217;-61
2022/04/23 09:03:33;;;;;;;3.40;2.60;;;;;;;19.54;55.52;98822.97;5074084;28;20172;-61
2022/04/23 09:05:58;;;;;;;4.67;3.00;;;;;;;19.52;55.59;98819.72;5074144;28;20167;-61
2022/04/23 09:08:26;;;;;;;3.80;2.90;;;;;;;19.55;55.53;98823.78;5090447;28;20226;-61
2022/04/23 09:10:54;;;;;;;3.30;2.70;;;;;;;19.55;55.45;98824.59;5094136;28;20182;-61
2022/04/23 09:13:26;;;;;;;4.20;3.23;;;;;;;19.55;55.61;98829.50;5076425;28;20416;-61
2022/04/23 09:24:45;;;;;;;3.03;2.40;;;;;;;19.55;55.54;98823.78;5093478;28;20427;-61
2022/04/23 09:27:10;;;;;;;3.80;2.93;;;;;;;19.54;55.57;98817.25;5075345;28;20580;-61
2022/04/23 09:29:36;;;;;;;3.37;2.60;;;;;;;19.54;55.60;98825.84;5092095;28;20421;-62
2022/04/23 09:32:12;;;;;;;3.80;2.90;;;;;;;19.54;55.51;98830.75;5092601;28;20171;-62
2022/04/23 09:34:38;;;;;;;4.43;2.60;;;;;;;19.52;55.51;98825.44;5092252;28;20170;-62
2022/04/23 09:37:05;;;;;;;4.03;2.90;;;;;;;19.54;55.52;98825.00;5089630;28;20463;-62
2022/04/23 09:39:31;;;;;;;3.67;2.80;;;;;;;19.54;55.64;98831.56;5071961;28;20413;-62
2022/04/23 09:42:17;;;;;;;3.50;2.80;;;;;;;19.56;55.74;98842.59;5073581;28;20497;-61
2022/04/23 09:44:44;;;;;;;3.43;2.70;;;;;;;19.55;55.72;98829.50;5073469;28;20459;-61
2022/04/23 09:47:09;;;;;;;3.60;2.83;;;;;;;19.54;55.72;98840.16;5055335;28;20437;-61
2022/04/23 09:49:35;;;;;;;3.40;2.40;;;;;;;19.54;55.49;98831.56;5055419;28;20409;-61
2022/04/23 09:52:07;;;;;;;4.37;2.87;;;;;;;19.54;55.80;98833.59;5073418;28;20179;-61
2022/04/23 09:54:33;;;;;;;3.20;2.30;;;;;;;19.55;55.53;98835.22;5073172;28;20474;-61
2022/04/23 09:56:59;;;;;;;3.47;2.60;;;;;;;19.54;55.18;98837.28;5073308;28;20485;-61
2022/04/23 09:59:25;;;;;;;4.00;2.40;;;;;;;19.54;55.64;98831.56;5091006;28;20428;-61
2022/04/23 10:01:51;;;;;;;2.80;2.40;;;;;;;19.55;55.73;98820.91;5092757;28;20412;-61
2022/04/23 10:04:21;;;;;;;4.93;2.73;;;;;;;19.53;55.50;98823.41;5073791;28;20201;-61
2022/04/23 10:06:48;;;;;;;4.53;2.83;;;;;;;19.53;55.59;98829.13;5073624;28;20519;-61
2022/04/23 10:09:13;;;;;;;3.23;2.73;;;;;;;19.54;55.28;98828.69;5038330;28;20413;-61
2022/04/23 10:11:40;;;;;;;3.00;2.40;;;;;;;19.54;55.67;98825.00;5038606;28;20422;-61
2022/04/23 10:14:10;;;;;;;3.37;2.77;;;;;;;19.54;55.62;98825.00;5054872;28;20221;-61
2022/04/23 10:16:36;;;;;;;3.50;2.73;;;;;;;19.54;55.43;98827.88;5059413;28;20444;-61
2022/04/23 10:19:01;;;;;;;2.80;2.10;;;;;;;19.54;55.56;98820.13;5073468;28;20432;-61
2022/04/23 10:21:48;;;;;;;2.80;2.50;;;;;;;19.55;55.57;98829.50;5092423;28;20178;-61
2022/04/23 10:24:31;;;;;;;4.17;2.20;;;;;;;19.55;55.52;98824.59;5074879;28;20167;-61
2022/04/23 10:27:07;;;;;;;3.80;2.70;;;;;;;19.56;55.68;98831.16;5092787;28;20435;-61
2022/04/23 10:29:32;;;;;;;4.03;2.53;;;;;;;19.55;55.46;98824.59;5056763;28;20433;-61
2022/04/23 10:32:13;;;;;;;3.30;2.60;;;;;;;19.56;55.41;98828.28;5054771;28;20931;-61
2022/04/23 10:34:39;;;;;;;3.90;2.57;;;;;;;19.55;55.61;98823.78;5072530;28;20251;-61
2022/04/23 10:37:27;;;;;;;3.93;2.80;;;;;;;19.56;55.46;98817.63;5072179;28;20457;-62
2022/04/23 10:39:53;;;;;;;3.03;2.37;;;;;;;19.56;55.86;98816.84;5072563;28;20805;-62
2022/04/23 10:42:23;;;;;;;3.70;2.60;;;;;;;19.55;55.61;98812.31;5074839;28;20417;-61
2022/04/23 10:44:49;;;;;;;3.23;2.83;;;;;;;19.55;55.71;98813.16;5072236;28;20217;-61
2022/04/23 10:47:29;;;;;;;4.37;2.93;;;;;;;19.55;55.59;98807.41;5076693;28;20498;-61
2022/04/23 10:50:13;;;;;;;3.33;2.33;;;;;;;19.55;55.58;98813.16;5072333;28;20432;-61
2022/04/23 10:52:39;;;;;;;3.10;2.40;;;;;;;19.55;55.47;98807.41;5072107;28;20462;-62
2022/04/23 10:55:04;;;;;;;3.70;2.63;;;;;;;19.54;55.48;98804.97;5072201;28;20421;-62
2022/04/23 10:57:30;;;;;;;2.83;2.43;;;;;;;19.55;56.01;98798.84;5074292;28;20210;-61
2022/04/23 10:59:56;;;;;;;3.37;2.40;;;;;;;19.54;55.53;98800.06;5092151;28;20173;-61
2022/04/23 11:02:21;;;;;;;2.90;2.30;;;;;;;19.55;55.72;98801.69;5092045;28;20185;-61
2022/04/23 11:13:48;;;;;;;3.33;2.57;;;;;;;19.57;55.39;98795.56;5091340;28;20425;-61
2022/04/23 11:16:20;;;;;;;3.57;2.60;;;;;;;19.55;55.59;98790.25;5090343;28;20452;-61
2022/04/23 11:18:49;;;;;;;3.37;2.47;;;;;;;19.57;55.65;98786.97;5072826;28;20174;-61
2022/04/23 11:21:32;;;;;;;2.97;2.23;;;;;;;19.57;55.38;98787.75;5058891;28;20509;-61
2022/04/23 11:23:59;;;;;;;3.33;2.60;;;;;;;19.58;55.50;98791.44;5071409;28;20417;-61
2022/04/23 11:26:46;;;;;;;3.97;2.30;;;;;;;19.61;55.43;98782.03;5056441;28;20507;-61
2022/04/23 11:29:15;;;;;;;3.10;2.30;;;;;;;19.58;55.45;98780.00;5087603;28;20473;-61
2022/04/23 11:31:51;;;;;;;5.20;2.50;;;;;;;19.57;55.37;98769.78;5084782;28;20417;-61
2022/04/23 11:34:17;;;;;;;3.53;2.60;;;;;;;19.57;55.38;98764.84;5057277;28;20475;-61
2022/04/23 11:36:42;;;;;;;3.87;2.20;;;;;;;19.61;55.37;98765.63;5082530;28;20457;-61
2022/04/23 11:39:10;;;;;;;7.47;3.80;;;;;;;19.50;54.33;98773.53;5069852;28;21180;-61
2022/04/23 11:41:38;;;;;;;8.10;4.83;;;;;;;19.41;52.90;98783.84;5090733;28;20177;-61
2022/04/23 11:45:05;;;;;;;6.83;4.43;;;;;;;19.32;51.35;98774.94;5091614;28;20419;-61
2022/04/23 11:47:06;;;;;;;9.23;4.70;;;;;;;19.30;50.99;98775.38;5065960;28;20443;-61
2022/04/23 11:49:32;;;;;;;5.60;4.00;;;;;;;19.35;50.67;98779.81;5069677;28;20425;-61
2022/04/23 11:52:04;;;;;;;6.73;4.90;;;;;;;19.40;50.97;98770.75;5071368;28;20187;-61
2022/04/23 11:54:36;;;;;;;6.97;4.70;;;;;;;19.37;50.66;98771.63;5061851;28;20171;-61
2022/04/23 11:57:03;;;;;;;5.80;4.43;;;;;;;19.42;50.78;98768.31;5091602;28;20959;-59